sensor_id;sensor_type;location;lat;lon;timestamp;P1;durP1;ratioP1;P2;durP2;ratioP2
16101;SDS011;56411;52.964;10.540;2022-10-16T00:01:13;6.22;;;3.05;;
16101;SDS011;56411;52.964;10.540;2022-10-16T00:03:42;7.00;;;3.30;;
16101;SDS011;56411;52.964;10.540;2022-10-16T00:06:13;7.95;;;4.07;;
16101;SDS011;56411;52.964;10.540;2022-10-16T00:08:41;9.82;;;3.92;;
16101;SDS011;56411;52.964;10.540;2022-10-16T00:11:12;8.40;;;4.20;;
16101;SDS011;56411;52.964;10.540;2022-10-16T00:13:44;9.18;;;3.65;;
16101;SDS011;56411;52.964;10.540;2022-10-16T00:16:12;7.22;;;3.95;;
16101;SDS011;56411;52.964;10.540;2022-10-16T00:18:39;8.80;;;4.30;;
16101;SDS011;56411;52.964;10.540;2022-10-16T00:21:07;7.70;;;3.80;;
16101;SDS011;56411;52.964;10.540;2022-10-16T00:23:36;9.18;;;4.13;;
16101;SDS011;56411;52.964;10.540;2022-10-16T00:26:12;8.30;;;3.97;;
16101;SDS011;56411;52.964;10.540;2022-10-16T00:28:45;9.82;;;4.15;;
16101;SDS011;56411;52.964;10.540;2022-10-16T00:31:18;9.35;;;4.35;;
16101;SDS011;56411;52.964;10.540;2022-10-16T00:33:47;8.52;;;4.22;;
16101;SDS011;56411;52.964;10.540;2022-10-16T00:36:27;10.43;;;4.50;;
16101;SDS011;56411;52.964;10.540;2022-10-16T00:38:56;9.07;;;4.27;;
16101;SDS011;56411;52.964;10.540;2022-10-16T00:41:27;8.55;;;3.95;;
16101;SDS011;56411;52.964;10.540;2022-10-16T00:43:56;7.90;;;3.88;;
16101;SDS011;56411;52.964;10.540;2022-10-16T00:46:35;8.88;;;4.35;;
16101;SDS011;56411;52.964;10.540;2022-10-16T00:49:05;8.98;;;4.07;;
16101;SDS011;56411;52.964;10.540;2022-10-16T00:51:37;7.75;;;3.70;;
16101;SDS011;56411;52.964;10.540;2022-10-16T00:54:09;7.15;;;3.85;;
16101;SDS011;56411;52.964;10.540;2022-10-16T00:56:40;8.80;;;4.20;;
16101;SDS011;56411;52.964;10.540;2022-10-16T00:59:10;8.35;;;4.15;;
16101;SDS011;56411;52.964;10.540;2022-10-16T01:01:41;7.33;;;3.60;;
16101;SDS011;56411;52.964;10.540;2022-10-16T01:04:08;8.33;;;4.20;;
16101;SDS011;56411;52.964;10.540;2022-10-16T01:06:36;7.90;;;4.00;;
16101;SDS011;56411;52.964;10.540;2022-10-16T01:09:14;8.65;;;4.45;;
16101;SDS011;56411;52.964;10.540;2022-10-16T01:11:51;7.55;;;3.65;;
16101;SDS011;56411;52.964;10.540;2022-10-16T01:14:28;10.37;;;3.50;;
16101;SDS011;56411;52.964;10.540;2022-10-16T01:17:06;7.60;;;3.58;;
16101;SDS011;56411;52.964;10.540;2022-10-16T01:19:42;8.45;;;3.58;;
16101;SDS011;56411;52.964;10.540;2022-10-16T01:22:28;7.18;;;3.30;;
16101;SDS011;56411;52.964;10.540;2022-10-16T01:25:03;8.98;;;3.20;;
16101;SDS011;56411;52.964;10.540;2022-10-16T01:27:35;6.18;;;3.17;;
16101;SDS011;56411;52.964;10.540;2022-10-16T01:30:07;6.47;;;3.10;;
16101;SDS011;56411;52.964;10.540;2022-10-16T01:32:40;6.72;;;3.10;;
16101;SDS011;56411;52.964;10.540;2022-10-16T01:35:10;7.00;;;2.80;;
16101;SDS011;56411;52.964;10.540;2022-10-16T01:37:41;4.73;;;3.00;;
16101;SDS011;56411;52.964;10.540;2022-10-16T01:40:13;6.70;;;3.13;;
16101;SDS011;56411;52.964;10.540;2022-10-16T01:42:44;7.37;;;3.30;;
16101;SDS011;56411;52.964;10.540;2022-10-16T01:45:14;7.40;;;3.00;;
16101;SDS011;56411;52.964;10.540;2022-10-16T01:47:44;9.07;;;3.47;;
16101;SDS011;56411;52.964;10.540;2022-10-16T01:50:12;7.63;;;3.60;;
16101;SDS011;56411;52.964;10.540;2022-10-16T01:52:42;7.88;;;3.45;;
16101;SDS011;56411;52.964;10.540;2022-10-16T01:55:12;9.73;;;3.50;;
16101;SDS011;56411;52.964;10.540;2022-10-16T01:57:44;10.17;;;3.93;;
16101;SDS011;56411;52.964;10.540;2022-10-16T02:00:14;9.10;;;4.00;;
16101;SDS011;56411;52.964;10.540;2022-10-16T02:02:45;8.93;;;3.77;;
16101;SDS011;56411;52.964;10.540;2022-10-16T02:05:16;10.47;;;3.50;;
16101;SDS011;56411;52.964;10.540;2022-10-16T02:07:48;10.27;;;3.80;;
16101;SDS011;56411;52.964;10.540;2022-10-16T02:10:15;7.20;;;3.60;;
16101;SDS011;56411;52.964;10.540;2022-10-16T02:12:45;9.03;;;4.17;;
16101;SDS011;56411;52.964;10.540;2022-10-16T02:15:16;8.43;;;3.73;;
16101;SDS011;56411;52.964;10.540;2022-10-16T02:17:43;9.82;;;4.22;;
16101;SDS011;56411;52.964;10.540;2022-10-16T02:20:10;8.80;;;3.70;;
16101;SDS011;56411;52.964;10.540;2022-10-16T02:22:38;7.97;;;3.73;;
16101;SDS011;56411;52.964;10.540;2022-10-16T02:25:08;7.70;;;3.83;;
16101;SDS011;56411;52.964;10.540;2022-10-16T02:27:40;8.70;;;4.22;;
16101;SDS011;56411;52.964;10.540;2022-10-16T02:30:14;8.77;;;3.70;;
16101;SDS011;56411;52.964;10.540;2022-10-16T02:32:46;9.03;;;3.60;;
16101;SDS011;56411;52.964;10.540;2022-10-16T02:35:15;8.50;;;3.40;;
16101;SDS011;56411;52.964;10.540;2022-10-16T02:37:44;6.47;;;3.17;;
16101;SDS011;56411;52.964;10.540;2022-10-16T02:40:13;9.80;;;3.60;;
16101;SDS011;56411;52.964;10.540;2022-10-16T02:42:40;7.67;;;3.40;;
16101;SDS011;56411;52.964;10.540;2022-10-16T02:45:08;8.37;;;3.20;;
16101;SDS011;56411;52.964;10.540;2022-10-16T02:47:38;9.17;;;3.50;;
16101;SDS011;56411;52.964;10.540;2022-10-16T02:50:05;9.90;;;3.53;;
16101;SDS011;56411;52.964;10.540;2022-10-16T02:52:33;7.20;;;3.43;;
16101;SDS011;56411;52.964;10.540;2022-10-16T02:54:59;8.53;;;3.13;;
16101;SDS011;56411;52.964;10.540;2022-10-16T02:57:26;6.07;;;3.03;;
16101;SDS011;56411;52.964;10.540;2022-10-16T02:59:53;7.60;;;3.30;;
16101;SDS011;56411;52.964;10.540;2022-10-16T03:02:20;8.50;;;3.40;;
16101;SDS011;56411;52.964;10.540;2022-10-16T03:04:48;7.83;;;3.13;;
16101;SDS011;56411;52.964;10.540;2022-10-16T03:07:15;7.47;;;3.20;;
16101;SDS011;56411;52.964;10.540;2022-10-16T03:09:42;8.97;;;3.30;;
16101;SDS011;56411;52.964;10.540;2022-10-16T03:12:09;7.67;;;3.37;;
16101;SDS011;56411;52.964;10.540;2022-10-16T03:14:37;7.33;;;3.50;;
16101;SDS011;56411;52.964;10.540;2022-10-16T03:17:04;7.57;;;3.07;;
16101;SDS011;56411;52.964;10.540;2022-10-16T03:19:31;6.80;;;3.20;;
16101;SDS011;56411;52.964;10.540;2022-10-16T03:21:59;7.57;;;3.10;;
16101;SDS011;56411;52.964;10.540;2022-10-16T03:24:26;8.63;;;3.60;;
16101;SDS011;56411;52.964;10.540;2022-10-16T03:26:53;7.70;;;3.17;;
16101;SDS011;56411;52.964;10.540;2022-10-16T03:29:20;6.10;;;3.13;;
16101;SDS011;56411;52.964;10.540;2022-10-16T03:31:47;8.07;;;3.27;;
16101;SDS011;56411;52.964;10.540;2022-10-16T03:34:14;8.93;;;3.30;;
16101;SDS011;56411;52.964;10.540;2022-10-16T03:36:41;8.23;;;3.33;;
16101;SDS011;56411;52.964;10.540;2022-10-16T03:39:09;8.93;;;3.03;;
16101;SDS011;56411;52.964;10.540;2022-10-16T03:41:36;10.20;;;3.57;;
16101;SDS011;56411;52.964;10.540;2022-10-16T03:44:03;8.07;;;3.27;;
16101;SDS011;56411;52.964;10.540;2022-10-16T03:46:30;5.73;;;2.90;;
16101;SDS011;56411;52.964;10.540;2022-10-16T03:48:57;7.83;;;3.03;;
16101;SDS011;56411;52.964;10.540;2022-10-16T03:51:24;7.80;;;3.10;;
16101;SDS011;56411;52.964;10.540;2022-10-16T03:53:50;6.63;;;3.00;;
16101;SDS011;56411;52.964;10.540;2022-10-16T03:56:19;10.00;;;3.13;;
16101;SDS011;56411;52.964;10.540;2022-10-16T03:58:46;8.77;;;3.00;;
16101;SDS011;56411;52.964;10.540;2022-10-16T04:01:13;5.87;;;3.10;;
16101;SDS011;56411;52.964;10.540;2022-10-16T04:03:41;10.27;;;3.57;;
16101;SDS011;56411;52.964;10.540;2022-10-16T04:06:08;9.07;;;3.40;;
16101;SDS011;56411;52.964;10.540;2022-10-16T04:08:34;5.47;;;2.80;;
16101;SDS011;56411;52.964;10.540;2022-10-16T04:11:02;10.00;;;3.43;;
16101;SDS011;56411;52.964;10.540;2022-10-16T04:13:30;7.90;;;3.30;;
16101;SDS011;56411;52.964;10.540;2022-10-16T04:15:57;7.33;;;3.10;;
16101;SDS011;56411;52.964;10.540;2022-10-16T04:18:24;9.10;;;3.10;;
16101;SDS011;56411;52.964;10.540;2022-10-16T04:20:52;7.63;;;3.20;;
16101;SDS011;56411;52.964;10.540;2022-10-16T04:23:19;11.37;;;3.53;;
16101;SDS011;56411;52.964;10.540;2022-10-16T04:25:47;9.53;;;3.30;;
16101;SDS011;56411;52.964;10.540;2022-10-16T04:28:14;8.90;;;3.80;;
16101;SDS011;56411;52.964;10.540;2022-10-16T04:30:43;8.90;;;3.47;;
16101;SDS011;56411;52.964;10.540;2022-10-16T04:33:10;8.50;;;3.50;;
16101;SDS011;56411;52.964;10.540;2022-10-16T04:35:37;10.27;;;3.83;;
16101;SDS011;56411;52.964;10.540;2022-10-16T04:38:04;9.50;;;4.07;;
16101;SDS011;56411;52.964;10.540;2022-10-16T04:40:31;9.33;;;4.20;;
16101;SDS011;56411;52.964;10.540;2022-10-16T04:43:00;9.27;;;4.07;;
16101;SDS011;56411;52.964;10.540;2022-10-16T04:45:27;9.23;;;4.10;;
16101;SDS011;56411;52.964;10.540;2022-10-16T04:47:57;15.77;;;5.07;;
16101;SDS011;56411;52.964;10.540;2022-10-16T04:50:25;11.77;;;5.17;;
16101;SDS011;56411;52.964;10.540;2022-10-16T04:52:51;11.63;;;5.00;;
16101;SDS011;56411;52.964;10.540;2022-10-16T04:55:18;11.27;;;4.30;;
16101;SDS011;56411;52.964;10.540;2022-10-16T04:57:45;9.37;;;4.50;;
16101;SDS011;56411;52.964;10.540;2022-10-16T05:00:12;10.07;;;4.50;;
16101;SDS011;56411;52.964;10.540;2022-10-16T05:02:39;10.40;;;4.80;;
16101;SDS011;56411;52.964;10.540;2022-10-16T05:05:08;10.20;;;4.37;;
16101;SDS011;56411;52.964;10.540;2022-10-16T05:07:35;11.47;;;5.00;;
16101;SDS011;56411;52.964;10.540;2022-10-16T05:10:02;13.60;;;5.20;;
16101;SDS011;56411;52.964;10.540;2022-10-16T05:12:29;11.27;;;5.00;;
16101;SDS011;56411;52.964;10.540;2022-10-16T05:14:56;14.33;;;4.87;;
16101;SDS011;56411;52.964;10.540;2022-10-16T05:17:23;9.93;;;4.60;;
16101;SDS011;56411;52.964;10.540;2022-10-16T05:19:50;13.37;;;4.97;;
16101;SDS011;56411;52.964;10.540;2022-10-16T05:22:18;10.80;;;4.97;;
16101;SDS011;56411;52.964;10.540;2022-10-16T05:24:45;11.77;;;5.33;;
16101;SDS011;56411;52.964;10.540;2022-10-16T05:27:12;11.67;;;5.00;;
16101;SDS011;56411;52.964;10.540;2022-10-16T05:29:44;11.87;;;5.13;;
16101;SDS011;56411;52.964;10.540;2022-10-16T05:32:11;15.17;;;5.87;;
16101;SDS011;56411;52.964;10.540;2022-10-16T05:34:38;11.53;;;5.60;;
16101;SDS011;56411;52.964;10.540;2022-10-16T05:37:05;12.10;;;5.00;;
16101;SDS011;56411;52.964;10.540;2022-10-16T05:39:34;13.07;;;5.13;;
16101;SDS011;56411;52.964;10.540;2022-10-16T05:42:01;16.20;;;6.77;;
16101;SDS011;56411;52.964;10.540;2022-10-16T05:44:28;12.70;;;5.60;;
16101;SDS011;56411;52.964;10.540;2022-10-16T05:46:55;11.47;;;5.37;;
16101;SDS011;56411;52.964;10.540;2022-10-16T05:49:22;13.00;;;5.60;;
16101;SDS011;56411;52.964;10.540;2022-10-16T05:51:49;13.67;;;5.20;;
16101;SDS011;56411;52.964;10.540;2022-10-16T05:54:19;11.33;;;5.23;;
16101;SDS011;56411;52.964;10.540;2022-10-16T05:56:47;12.63;;;5.03;;
16101;SDS011;56411;52.964;10.540;2022-10-16T05:59:14;12.03;;;5.10;;
16101;SDS011;56411;52.964;10.540;2022-10-16T06:01:41;11.50;;;5.30;;
16101;SDS011;56411;52.964;10.540;2022-10-16T06:04:08;10.10;;;4.53;;
16101;SDS011;56411;52.964;10.540;2022-10-16T06:06:35;13.27;;;4.73;;
16101;SDS011;56411;52.964;10.540;2022-10-16T06:09:02;12.63;;;5.60;;
16101;SDS011;56411;52.964;10.540;2022-10-16T06:11:31;11.23;;;5.20;;
16101;SDS011;56411;52.964;10.540;2022-10-16T06:14:00;11.33;;;5.43;;
16101;SDS011;56411;52.964;10.540;2022-10-16T06:16:31;12.50;;;5.00;;
16101;SDS011;56411;52.964;10.540;2022-10-16T06:19:02;14.17;;;5.30;;
16101;SDS011;56411;52.964;10.540;2022-10-16T06:21:36;12.67;;;4.57;;
16101;SDS011;56411;52.964;10.540;2022-10-16T06:24:06;12.43;;;4.63;;
16101;SDS011;56411;52.964;10.540;2022-10-16T06:26:33;10.83;;;4.87;;
16101;SDS011;56411;52.964;10.540;2022-10-16T06:29:01;10.20;;;4.40;;
16101;SDS011;56411;52.964;10.540;2022-10-16T06:31:28;11.40;;;4.80;;
16101;SDS011;56411;52.964;10.540;2022-10-16T06:33:58;8.73;;;4.22;;
16101;SDS011;56411;52.964;10.540;2022-10-16T06:36:26;8.73;;;4.47;;
16101;SDS011;56411;52.964;10.540;2022-10-16T06:38:53;9.53;;;4.13;;
16101;SDS011;56411;52.964;10.540;2022-10-16T06:41:20;10.25;;;4.15;;
16101;SDS011;56411;52.964;10.540;2022-10-16T06:43:48;9.35;;;4.18;;
16101;SDS011;56411;52.964;10.540;2022-10-16T06:46:19;9.67;;;4.30;;
16101;SDS011;56411;52.964;10.540;2022-10-16T06:48:48;12.18;;;4.22;;
16101;SDS011;56411;52.964;10.540;2022-10-16T06:51:16;9.75;;;4.32;;
16101;SDS011;56411;52.964;10.540;2022-10-16T06:53:44;9.98;;;3.95;;
16101;SDS011;56411;52.964;10.540;2022-10-16T06:56:15;9.55;;;4.38;;
16101;SDS011;56411;52.964;10.540;2022-10-16T06:58:45;9.73;;;3.85;;
16101;SDS011;56411;52.964;10.540;2022-10-16T07:01:17;9.65;;;3.70;;
16101;SDS011;56411;52.964;10.540;2022-10-16T07:03:46;8.25;;;3.90;;
16101;SDS011;56411;52.964;10.540;2022-10-16T07:06:14;6.32;;;3.20;;
16101;SDS011;56411;52.964;10.540;2022-10-16T07:08:43;8.82;;;3.55;;
16101;SDS011;56411;52.964;10.540;2022-10-16T07:11:12;8.85;;;3.50;;
16101;SDS011;56411;52.964;10.540;2022-10-16T07:13:43;8.25;;;3.80;;
16101;SDS011;56411;52.964;10.540;2022-10-16T07:16:13;7.90;;;3.47;;
16101;SDS011;56411;52.964;10.540;2022-10-16T07:18:43;9.05;;;3.47;;
16101;SDS011;56411;52.964;10.540;2022-10-16T07:21:15;8.73;;;3.63;;
16101;SDS011;56411;52.964;10.540;2022-10-16T07:23:49;8.77;;;3.40;;
16101;SDS011;56411;52.964;10.540;2022-10-16T07:26:16;7.35;;;3.30;;
16101;SDS011;56411;52.964;10.540;2022-10-16T07:28:43;8.60;;;3.40;;
16101;SDS011;56411;52.964;10.540;2022-10-16T07:31:11;8.07;;;3.42;;
16101;SDS011;56411;52.964;10.540;2022-10-16T07:33:45;8.02;;;3.28;;
16101;SDS011;56411;52.964;10.540;2022-10-16T07:36:13;9.88;;;3.78;;
16101;SDS011;56411;52.964;10.540;2022-10-16T07:38:41;8.18;;;3.30;;
16101;SDS011;56411;52.964;10.540;2022-10-16T07:41:09;8.93;;;3.40;;
16101;SDS011;56411;52.964;10.540;2022-10-16T07:43:37;9.15;;;3.55;;
16101;SDS011;56411;52.964;10.540;2022-10-16T07:46:04;8.68;;;3.33;;
16101;SDS011;56411;52.964;10.540;2022-10-16T07:48:31;8.23;;;3.33;;
16101;SDS011;56411;52.964;10.540;2022-10-16T07:51:02;7.35;;;3.20;;
16101;SDS011;56411;52.964;10.540;2022-10-16T07:53:35;8.90;;;3.70;;
16101;SDS011;56411;52.964;10.540;2022-10-16T07:56:03;10.38;;;3.38;;
16101;SDS011;56411;52.964;10.540;2022-10-16T07:58:32;6.55;;;2.90;;
16101;SDS011;56411;52.964;10.540;2022-10-16T08:01:02;7.60;;;2.80;;
16101;SDS011;56411;52.964;10.540;2022-10-16T08:03:31;6.80;;;3.35;;
16101;SDS011;56411;52.964;10.540;2022-10-16T08:05:58;5.57;;;3.00;;
16101;SDS011;56411;52.964;10.540;2022-10-16T08:08:27;7.90;;;2.92;;
16101;SDS011;56411;52.964;10.540;2022-10-16T08:10:54;8.63;;;3.30;;
16101;SDS011;56411;52.964;10.540;2022-10-16T08:13:24;8.25;;;3.15;;
16101;SDS011;56411;52.964;10.540;2022-10-16T08:15:54;8.35;;;3.42;;
16101;SDS011;56411;52.964;10.540;2022-10-16T08:18:24;8.45;;;2.92;;
16101;SDS011;56411;52.964;10.540;2022-10-16T08:20:57;5.47;;;2.70;;
16101;SDS011;56411;52.964;10.540;2022-10-16T08:23:29;6.15;;;3.00;;
16101;SDS011;56411;52.964;10.540;2022-10-16T08:26:00;5.93;;;2.55;;
16101;SDS011;56411;52.964;10.540;2022-10-16T08:28:29;8.60;;;3.00;;
16101;SDS011;56411;52.964;10.540;2022-10-16T08:30:56;7.32;;;3.00;;
16101;SDS011;56411;52.964;10.540;2022-10-16T08:33:33;7.40;;;2.75;;
16101;SDS011;56411;52.964;10.540;2022-10-16T08:36:04;6.00;;;2.88;;
16101;SDS011;56411;52.964;10.540;2022-10-16T08:38:37;7.68;;;2.60;;
16101;SDS011;56411;52.964;10.540;2022-10-16T08:44:27;7.07;;;2.38;;
16101;SDS011;56411;52.964;10.540;2022-10-16T08:47:09;3.95;;;2.40;;
16101;SDS011;56411;52.964;10.540;2022-10-16T08:49:43;7.78;;;3.30;;
16101;SDS011;56411;52.964;10.540;2022-10-16T08:52:21;6.45;;;2.50;;
16101;SDS011;56411;52.964;10.540;2022-10-16T08:54:53;6.43;;;2.58;;
16101;SDS011;56411;52.964;10.540;2022-10-16T08:57:24;6.30;;;2.45;;
16101;SDS011;56411;52.964;10.540;2022-10-16T08:59:52;8.30;;;2.70;;
16101;SDS011;56411;52.964;10.540;2022-10-16T09:02:26;4.13;;;2.33;;
16101;SDS011;56411;52.964;10.540;2022-10-16T09:05:02;5.53;;;2.38;;
16101;SDS011;56411;52.964;10.540;2022-10-16T09:07:55;4.88;;;2.35;;
16101;SDS011;56411;52.964;10.540;2022-10-16T09:10:38;7.70;;;2.33;;
16101;SDS011;56411;52.964;10.540;2022-10-16T09:13:19;3.33;;;2.03;;
16101;SDS011;56411;52.964;10.540;2022-10-16T09:15:53;6.30;;;2.50;;
16101;SDS011;56411;52.964;10.540;2022-10-16T09:18:28;4.65;;;2.00;;
16101;SDS011;56411;52.964;10.540;2022-10-16T09:21:01;5.72;;;2.10;;
16101;SDS011;56411;52.964;10.540;2022-10-16T09:23:36;7.47;;;2.13;;
16101;SDS011;56411;52.964;10.540;2022-10-16T09:26:05;6.00;;;2.22;;
16101;SDS011;56411;52.964;10.540;2022-10-16T09:28:37;4.35;;;2.00;;
16101;SDS011;56411;52.964;10.540;2022-10-16T09:31:04;2.40;;;1.70;;
16101;SDS011;56411;52.964;10.540;2022-10-16T09:33:33;5.00;;;2.15;;
16101;SDS011;56411;52.964;10.540;2022-10-16T09:36:03;3.60;;;1.60;;
16101;SDS011;56411;52.964;10.540;2022-10-16T09:38:32;3.10;;;1.80;;
16101;SDS011;56411;52.964;10.540;2022-10-16T09:41:01;2.67;;;1.67;;
16101;SDS011;56411;52.964;10.540;2022-10-16T09:43:34;3.55;;;1.70;;
16101;SDS011;56411;52.964;10.540;2022-10-16T09:46:06;2.95;;;1.63;;
16101;SDS011;56411;52.964;10.540;2022-10-16T09:48:36;1.95;;;1.60;;
16101;SDS011;56411;52.964;10.540;2022-10-16T09:51:05;2.95;;;1.45;;
16101;SDS011;56411;52.964;10.540;2022-10-16T09:53:41;3.65;;;1.60;;
16101;SDS011;56411;52.964;10.540;2022-10-16T09:56:12;2.92;;;1.75;;
16101;SDS011;56411;52.964;10.540;2022-10-16T09:58:51;5.63;;;1.92;;
16101;SDS011;56411;52.964;10.540;2022-10-16T10:01:19;2.35;;;1.50;;
16101;SDS011;56411;52.964;10.540;2022-10-16T10:03:48;5.63;;;1.90;;
16101;SDS011;56411;52.964;10.540;2022-10-16T10:06:19;3.92;;;1.60;;
16101;SDS011;56411;52.964;10.540;2022-10-16T10:09:00;3.33;;;1.67;;
16101;SDS011;56411;52.964;10.540;2022-10-16T10:11:40;4.50;;;2.08;;
16101;SDS011;56411;52.964;10.540;2022-10-16T10:14:17;4.10;;;1.70;;
16101;SDS011;56411;52.964;10.540;2022-10-16T10:16:46;2.85;;;1.70;;
16101;SDS011;56411;52.964;10.540;2022-10-16T10:19:15;4.50;;;1.85;;
16101;SDS011;56411;52.964;10.540;2022-10-16T10:21:43;6.50;;;1.92;;
16101;SDS011;56411;52.964;10.540;2022-10-16T10:24:11;4.78;;;1.83;;
16101;SDS011;56411;52.964;10.540;2022-10-16T10:26:44;4.15;;;1.70;;
16101;SDS011;56411;52.964;10.540;2022-10-16T10:29:31;2.78;;;1.65;;
16101;SDS011;56411;52.964;10.540;2022-10-16T10:32:23;4.20;;;1.75;;
16101;SDS011;56411;52.964;10.540;2022-10-16T10:35:02;4.78;;;1.80;;
16101;SDS011;56411;52.964;10.540;2022-10-16T10:37:46;3.60;;;1.60;;
16101;SDS011;56411;52.964;10.540;2022-10-16T10:40:30;4.10;;;1.63;;
16101;SDS011;56411;52.964;10.540;2022-10-16T10:43:12;2.67;;;1.70;;
16101;SDS011;56411;52.964;10.540;2022-10-16T10:45:55;5.18;;;1.90;;
16101;SDS011;56411;52.964;10.540;2022-10-16T10:48:32;4.03;;;1.70;;
16101;SDS011;56411;52.964;10.540;2022-10-16T10:51:19;2.55;;;1.70;;
16101;SDS011;56411;52.964;10.540;2022-10-16T10:53:52;3.78;;;1.65;;
16101;SDS011;56411;52.964;10.540;2022-10-16T10:56:35;3.38;;;1.70;;
16101;SDS011;56411;52.964;10.540;2022-10-16T10:59:14;2.42;;;1.40;;
16101;SDS011;56411;52.964;10.540;2022-10-16T11:02:21;2.97;;;1.52;;
16101;SDS011;56411;52.964;10.540;2022-10-16T11:05:03;5.60;;;1.77;;
16101;SDS011;56411;52.964;10.540;2022-10-16T11:07:49;2.65;;;1.60;;
16101;SDS011;56411;52.964;10.540;2022-10-16T11:10:21;3.47;;;1.70;;
16101;SDS011;56411;52.964;10.540;2022-10-16T11:12:52;3.15;;;1.60;;
16101;SDS011;56411;52.964;10.540;2022-10-16T11:15:23;6.95;;;1.73;;
16101;SDS011;56411;52.964;10.540;2022-10-16T11:17:57;4.38;;;1.67;;
16101;SDS011;56411;52.964;10.540;2022-10-16T11:20:29;3.42;;;1.40;;
16101;SDS011;56411;52.964;10.540;2022-10-16T11:23:00;3.40;;;1.45;;
16101;SDS011;56411;52.964;10.540;2022-10-16T11:25:36;3.63;;;1.60;;
16101;SDS011;56411;52.964;10.540;2022-10-16T11:28:07;4.05;;;1.48;;
16101;SDS011;56411;52.964;10.540;2022-10-16T11:30:39;5.07;;;1.70;;
16101;SDS011;56411;52.964;10.540;2022-10-16T11:33:28;5.43;;;1.80;;
16101;SDS011;56411;52.964;10.540;2022-10-16T11:36:00;4.32;;;1.60;;
16101;SDS011;56411;52.964;10.540;2022-10-16T11:38:35;1.50;;;1.40;;
16101;SDS011;56411;52.964;10.540;2022-10-16T11:41:10;4.80;;;1.45;;
16101;SDS011;56411;52.964;10.540;2022-10-16T11:43:46;3.20;;;1.40;;
16101;SDS011;56411;52.964;10.540;2022-10-16T11:46:19;3.35;;;1.70;;
16101;SDS011;56411;52.964;10.540;2022-10-16T11:48:52;4.30;;;1.60;;
16101;SDS011;56411;52.964;10.540;2022-10-16T11:51:29;5.28;;;1.55;;
16101;SDS011;56411;52.964;10.540;2022-10-16T11:54:02;3.80;;;1.40;;
16101;SDS011;56411;52.964;10.540;2022-10-16T11:56:36;4.85;;;1.60;;
16101;SDS011;56411;52.964;10.540;2022-10-16T11:59:07;4.35;;;1.60;;
16101;SDS011;56411;52.964;10.540;2022-10-16T12:01:42;3.55;;;1.63;;
16101;SDS011;56411;52.964;10.540;2022-10-16T12:04:16;3.83;;;1.40;;
16101;SDS011;56411;52.964;10.540;2022-10-16T12:06:49;5.70;;;1.70;;
16101;SDS011;56411;52.964;10.540;2022-10-16T12:09:21;5.03;;;1.77;;
16101;SDS011;56411;52.964;10.540;2022-10-16T12:11:52;3.70;;;1.50;;
16101;SDS011;56411;52.964;10.540;2022-10-16T12:14:21;7.75;;;1.52;;
16101;SDS011;56411;52.964;10.540;2022-10-16T12:17:01;2.55;;;1.50;;
16101;SDS011;56411;52.964;10.540;2022-10-16T12:19:33;4.80;;;1.63;;
16101;SDS011;56411;52.964;10.540;2022-10-16T12:22:01;5.93;;;1.60;;
16101;SDS011;56411;52.964;10.540;2022-10-16T12:24:33;4.65;;;1.58;;
16101;SDS011;56411;52.964;10.540;2022-10-16T12:27:02;5.25;;;1.63;;
16101;SDS011;56411;52.964;10.540;2022-10-16T12:29:35;6.70;;;2.03;;
16101;SDS011;56411;52.964;10.540;2022-10-16T12:32:04;6.07;;;1.60;;
16101;SDS011;56411;52.964;10.540;2022-10-16T12:34:45;4.00;;;1.50;;
16101;SDS011;56411;52.964;10.540;2022-10-16T12:37:14;7.15;;;1.67;;
16101;SDS011;56411;52.964;10.540;2022-10-16T12:39:47;3.55;;;1.67;;
16101;SDS011;56411;52.964;10.540;2022-10-16T12:42:31;5.25;;;1.63;;
16101;SDS011;56411;52.964;10.540;2022-10-16T12:45:00;3.90;;;1.70;;
16101;SDS011;56411;52.964;10.540;2022-10-16T12:48:01;1.88;;;1.50;;
16101;SDS011;56411;52.964;10.540;2022-10-16T12:50:34;4.13;;;1.60;;
16101;SDS011;56411;52.964;10.540;2022-10-16T12:53:17;5.57;;;1.63;;
16101;SDS011;56411;52.964;10.540;2022-10-16T12:55:52;3.58;;;1.65;;
16101;SDS011;56411;52.964;10.540;2022-10-16T12:58:33;6.13;;;2.10;;
16101;SDS011;56411;52.964;10.540;2022-10-16T13:01:17;3.95;;;1.60;;
16101;SDS011;56411;52.964;10.540;2022-10-16T13:06:55;4.15;;;1.70;;
16101;SDS011;56411;52.964;10.540;2022-10-16T13:09:29;4.32;;;1.70;;
16101;SDS011;56411;52.964;10.540;2022-10-16T13:12:10;4.55;;;1.60;;
16101;SDS011;56411;52.964;10.540;2022-10-16T13:17:45;1.60;;;1.50;;
16101;SDS011;56411;52.964;10.540;2022-10-16T13:20:21;5.53;;;1.63;;
16101;SDS011;56411;52.964;10.540;2022-10-16T13:22:58;5.13;;;2.00;;
16101;SDS011;56411;52.964;10.540;2022-10-16T13:25:35;4.68;;;1.80;;
16101;SDS011;56411;52.964;10.540;2022-10-16T13:28:11;3.60;;;1.85;;
16101;SDS011;56411;52.964;10.540;2022-10-16T13:30:40;2.92;;;1.90;;
16101;SDS011;56411;52.964;10.540;2022-10-16T13:33:12;3.10;;;1.80;;
16101;SDS011;56411;52.964;10.540;2022-10-16T13:35:47;5.40;;;2.10;;
16101;SDS011;56411;52.964;10.540;2022-10-16T13:38:18;4.97;;;1.92;;
16101;SDS011;56411;52.964;10.540;2022-10-16T13:40:50;5.35;;;1.90;;
16101;SDS011;56411;52.964;10.540;2022-10-16T13:43:20;3.92;;;1.88;;
16101;SDS011;56411;52.964;10.540;2022-10-16T13:45:53;5.80;;;1.73;;
16101;SDS011;56411;52.964;10.540;2022-10-16T13:48:27;4.65;;;1.98;;
16101;SDS011;56411;52.964;10.540;2022-10-16T13:50:58;4.55;;;1.80;;
16101;SDS011;56411;52.964;10.540;2022-10-16T13:53:29;3.90;;;1.92;;
16101;SDS011;56411;52.964;10.540;2022-10-16T13:56:01;5.20;;;1.80;;
16101;SDS011;56411;52.964;10.540;2022-10-16T13:58:30;3.63;;;1.70;;
16101;SDS011;56411;52.964;10.540;2022-10-16T14:00:58;4.25;;;1.83;;
16101;SDS011;56411;52.964;10.540;2022-10-16T14:03:27;3.65;;;1.90;;
16101;SDS011;56411;52.964;10.540;2022-10-16T14:05:56;3.83;;;1.70;;
16101;SDS011;56411;52.964;10.540;2022-10-16T14:08:28;4.72;;;1.58;;
16101;SDS011;56411;52.964;10.540;2022-10-16T14:10:59;3.42;;;1.50;;
16101;SDS011;56411;52.964;10.540;2022-10-16T14:13:31;2.92;;;1.70;;
16101;SDS011;56411;52.964;10.540;2022-10-16T14:16:04;3.15;;;1.80;;
16101;SDS011;56411;52.964;10.540;2022-10-16T14:18:36;4.57;;;1.80;;
16101;SDS011;56411;52.964;10.540;2022-10-16T14:21:05;3.85;;;1.70;;
16101;SDS011;56411;52.964;10.540;2022-10-16T14:23:35;3.10;;;1.70;;
16101;SDS011;56411;52.964;10.540;2022-10-16T14:26:05;4.65;;;1.70;;
16101;SDS011;56411;52.964;10.540;2022-10-16T14:28:39;3.50;;;1.80;;
16101;SDS011;56411;52.964;10.540;2022-10-16T14:31:20;4.95;;;1.60;;
16101;SDS011;56411;52.964;10.540;2022-10-16T14:33:53;3.85;;;1.58;;
16101;SDS011;56411;52.964;10.540;2022-10-16T14:36:21;3.55;;;1.60;;
16101;SDS011;56411;52.964;10.540;2022-10-16T14:38:54;3.83;;;1.67;;
16101;SDS011;56411;52.964;10.540;2022-10-16T14:41:25;1.88;;;1.60;;
16101;SDS011;56411;52.964;10.540;2022-10-16T14:43:53;1.83;;;1.45;;
16101;SDS011;56411;52.964;10.540;2022-10-16T14:46:22;2.65;;;1.67;;
16101;SDS011;56411;52.964;10.540;2022-10-16T14:48:59;4.53;;;1.60;;
16101;SDS011;56411;52.964;10.540;2022-10-16T14:51:28;3.58;;;1.60;;
16101;SDS011;56411;52.964;10.540;2022-10-16T14:53:57;3.00;;;1.70;;
16101;SDS011;56411;52.964;10.540;2022-10-16T14:56:25;3.95;;;1.80;;
16101;SDS011;56411;52.964;10.540;2022-10-16T14:58:55;6.00;;;2.00;;
16101;SDS011;56411;52.964;10.540;2022-10-16T15:01:23;5.47;;;1.83;;
16101;SDS011;56411;52.964;10.540;2022-10-16T15:03:50;5.43;;;2.20;;
16101;SDS011;56411;52.964;10.540;2022-10-16T15:06:19;4.97;;;1.70;;